createdAt,value
2019-04-05T00:00:25.577Z,96.30
2019-04-05T00:03:00.792Z,95.20
2019-04-05T00:05:32.226Z,95.40
2019-04-05T00:10:54.745Z,95.90
2019-04-05T00:13:27.708Z,95.00
2019-04-05T00:16:07.761Z,95.30
2019-04-05T00:21:30.168Z,95.30
2019-04-05T00:24:01.362Z,95.00
2019-04-05T00:26:35.462Z,95.40
2019-04-05T00:29:07.063Z,95.10
2019-04-05T00:31:47.897Z,95.90
2019-04-05T00:34:20.685Z,95.30
2019-04-05T00:36:52.917Z,94.90
2019-04-05T00:39:24.273Z,95.50
2019-04-05T00:41:56.251Z,95.30
2019-04-05T00:44:25.450Z,95.10
2019-04-05T00:46:58.055Z,94.70
2019-04-05T00:49:36.836Z,95.00
2019-04-05T00:52:18.117Z,94.50
2019-04-05T00:54:55.451Z,94.50
2019-04-05T01:00:17.189Z,94.50
2019-04-05T01:02:50.625Z,94.30
2019-04-05T01:05:22.042Z,95.10
2019-04-05T01:07:55.122Z,95.20
2019-04-05T01:10:26.964Z,94.80
2019-04-05T01:13:00.683Z,95.60
2019-04-05T01:15:41.060Z,95.30
2019-04-05T01:18:09.623Z,95.70
2019-04-05T01:20:41.665Z,95.60
2019-04-05T01:23:14.751Z,94.90
2019-04-05T01:25:57.338Z,94.90
2019-04-05T01:39:22.991Z,96.40
2019-04-05T01:41:53.346Z,96.60
2019-04-05T01:44:25.292Z,96.60
2019-04-05T01:46:54.540Z,96.80
2019-04-05T01:49:25.801Z,96.30
2019-04-05T01:52:00.378Z,96.30
2019-04-05T01:54:30.900Z,96.70
2019-04-05T01:57:02.441Z,96.80
2019-04-05T01:59:33.724Z,97.20
2019-04-05T02:02:09.150Z,97.10
2019-04-05T02:04:39.193Z,97.70
2019-04-05T02:07:11.077Z,98.00
2019-04-05T02:09:42.372Z,99.30
2019-04-05T02:12:11.896Z,99.00
2019-04-05T02:17:31.783Z,98.90
2019-04-05T02:20:07.164Z,99.00
2019-04-05T02:22:38.826Z,99.90
2019-04-05T02:25:08.893Z,99.20
2019-04-05T02:27:38.318Z,98.70
2019-04-05T02:30:09.225Z,98.80
2019-04-05T02:32:39.143Z,99.10
2019-04-05T02:35:08.920Z,99.90
2019-04-05T02:37:38.274Z,99.50
2019-04-05T02:40:11.452Z,98.90
2019-04-05T02:42:45.246Z,99.30
2019-04-05T02:45:17.383Z,99.90
2019-04-05T02:51:06.083Z,99.10
2019-04-05T02:53:37.645Z,99.40
2019-04-05T02:56:09.373Z,99.50
2019-04-05T02:58:39.500Z,99.60
2019-04-05T03:01:11.940Z,99.30
2019-04-05T03:09:29.684Z,99.30
2019-04-05T03:12:00.044Z,99.40
2019-04-05T03:14:33.914Z,99.30
2019-04-05T03:17:06.753Z,99.60
2019-04-05T03:19:40.770Z,99.10
2019-04-05T03:22:12.954Z,99.20
2019-04-05T03:24:45.941Z,98.90
2019-04-05T03:27:17.851Z,99.00
2019-04-05T03:29:51.098Z,98.90
2019-04-05T03:32:22.613Z,99.30
2019-04-05T03:34:55.018Z,98.70
2019-04-05T03:37:28.317Z,98.70
2019-04-05T03:39:59.041Z,98.40
2019-04-05T03:42:32.819Z,98.30
2019-04-05T03:45:05.456Z,99.50
2019-04-05T03:47:37.875Z,98.80
2019-04-05T03:50:08.925Z,98.70
2019-04-05T03:52:40.160Z,98.10
2019-04-05T03:57:59.346Z,98.50
2019-04-05T04:00:30.322Z,98.40
2019-04-05T04:03:03.889Z,98.30
2019-04-05T04:05:35.003Z,98.40
2019-04-05T04:08:06.230Z,98.50
2019-04-05T04:10:36.850Z,98.20
2019-04-05T04:13:15.004Z,98.20
2019-04-05T04:15:50.444Z,98.40
2019-04-05T04:21:22.645Z,98.80
2019-04-05T04:23:54.137Z,98.90
2019-04-05T04:26:25.078Z,98.10
2019-04-05T04:28:59.894Z,98.10
2019-04-05T04:31:31.103Z,98.50
2019-04-05T04:34:01.480Z,98.40
2019-04-05T04:36:34.769Z,98.50
2019-04-05T04:39:11.219Z,97.90
2019-04-05T04:41:42.955Z,98.60
2019-04-05T04:47:02.972Z,98.30
2019-04-05T04:49:35.830Z,98.50
2019-04-05T04:52:08.446Z,98.70
2019-04-05T04:54:40.332Z,98.60
2019-04-05T04:57:14.711Z,99.30
2019-04-05T04:59:53.030Z,99.10
2019-04-05T05:02:31.582Z,99.30
2019-04-05T05:07:56.736Z,99.30
2019-04-05T05:10:38.420Z,99.00
2019-04-05T05:13:13.715Z,99.20
2019-04-05T05:15:47.040Z,99.60
2019-04-05T05:18:18.219Z,99.90
2019-04-05T05:20:52.070Z,99.50
2019-04-05T05:23:25.626Z,99.50
2019-04-05T05:26:07.448Z,99.40
2019-04-05T05:28:57.836Z,99.10
2019-04-05T05:31:31.489Z,99.60
2019-04-05T05:34:02.755Z,99.90
2019-04-05T05:36:35.672Z,99.40
2019-04-05T05:39:09.567Z,99.50
2019-04-05T05:41:52.575Z,99.70
2019-04-05T05:44:27.109Z,99.60
2019-04-05T05:46:59.380Z,99.90
2019-04-05T05:52:26.495Z,99.50
2019-04-05T05:54:57.694Z,99.20
2019-04-05T05:57:34.742Z,99.30
2019-04-05T06:00:13.711Z,99.00
2019-04-05T06:05:43.474Z,98.90
2019-04-05T06:08:20.078Z,99.20
2019-04-05T06:10:52.271Z,99.60
2019-04-05T06:13:33.668Z,99.50
2019-04-05T06:16:10.080Z,99.20
2019-04-05T06:18:43.905Z,99.20
2019-04-05T06:21:33.170Z,99.80
2019-04-05T06:38:17.766Z,99.10
2019-04-05T06:57:30.585Z,96.50
2019-04-05T07:03:13.529Z,96.70
2019-04-05T07:05:57.274Z,96.20
2019-04-05T07:14:23.836Z,95.20
2019-04-05T07:19:50.672Z,95.10
2019-04-05T07:22:37.046Z,95.10
2019-04-05T07:25:12.882Z,94.80
2019-04-05T07:30:51.619Z,93.70
2019-04-05T07:38:57.630Z,94.00
2019-04-05T07:41:35.802Z,93.80
2019-04-05T07:55:43.745Z,93.80
2019-04-05T08:17:51.820Z,93.80
2019-04-05T08:43:59.588Z,94.60
2019-04-05T09:01:05.434Z,93.10
2019-04-05T09:21:10.115Z,92.90
2019-04-05T09:44:26.113Z,92.40
